Time;durP1;ratioP1;P1;durP2;ratioP2;P2;SDS_P1;SDS_P2;PMS_P1;PMS_P2;Temp;Humidity;BMP_temperature;BMP_pressure;BME280_temperature;BME280_humidity;BME280_pressure;Samples;Min_cycle;Max_cycle;Signal;HPM_P1;HPM_P2
2022/08/03 00:01:54;;;;;;;;;;;23.10;99.90;;;;;;5092373;28;19988;-85
2022/08/03 00:04:19;;;;;;;;;;;23.10;99.90;;;;;;5093240;28;19963;-84
2022/08/03 00:06:45;;;;;;;;;;;23.10;99.90;;;;;;5091884;28;19912;-85
2022/08/03 00:09:10;;;;;;;;;;;23.10;99.90;;;;;;5091805;28;19954;-85
2022/08/03 00:11:36;;;;;;;;;;;23.10;99.90;;;;;;5092113;28;19912;-84
2022/08/03 00:14:03;;;;;;;;;;;23.10;99.90;;;;;;5091839;28;19961;-85
2022/08/03 00:16:28;;;;;;;;;;;23.10;99.90;;;;;;5091858;28;20006;-85
2022/08/03 00:18:54;;;;;;;;;;;23.20;99.90;;;;;;5092505;28;20392;-85
2022/08/03 00:21:19;;;;;;;;;;;23.20;99.90;;;;;;5091639;28;19912;-85
2022/08/03 00:23:45;;;;;;;;;;;23.20;99.90;;;;;;5092194;28;20003;-86
2022/08/03 00:26:10;;;;;;;;;;;23.20;99.90;;;;;;5091252;28;20487;-84
2022/08/03 00:28:36;;;;;;;;;;;23.20;99.90;;;;;;5091728;28;19974;-85
2022/08/03 00:31:01;;;;;;;;;;;23.20;99.90;;;;;;5091521;28;19908;-84
2022/08/03 00:33:27;;;;;;;;;;;23.20;99.90;;;;;;5092003;28;20243;-85
2022/08/03 00:35:52;;;;;;;;;;;23.20;99.90;;;;;;5091252;28;19916;-85
2022/08/03 00:38:18;;;;;;;;;;;23.10;99.90;;;;;;5091460;28;20006;-85
2022/08/03 00:40:44;;;;;;;;;;;23.10;99.90;;;;;;5092751;28;19924;-85
2022/08/03 00:43:10;;;;;;;;;;;23.10;99.90;;;;;;5093502;28;19915;-85
2022/08/03 00:45:36;;;;;;;;;;;23.10;99.90;;;;;;5093205;28;19908;-87
2022/08/03 00:48:03;;;;;;;;;;;23.00;99.90;;;;;;5092312;28;19909;-85
2022/08/03 00:50:30;;;;;;;;;;;23.10;99.90;;;;;;5091783;28;20375;-85
2022/08/03 00:52:56;;;;;;;;;;;23.00;99.90;;;;;;5092085;28;19912;-85
2022/08/03 00:55:23;;;;;;;;;;;23.10;99.90;;;;;;5091958;28;19916;-85
2022/08/03 00:57:48;;;;;;;;;;;23.10;99.90;;;;;;5091125;28;19915;-85
2022/08/03 01:00:16;;;;;;;;;;;23.00;99.90;;;;;;5091860;28;20363;-85
2022/08/03 01:02:42;;;;;;;;;;;23.00;99.90;;;;;;5091466;28;20437;-85
2022/08/03 01:05:08;;;;;;;;;;;23.00;99.90;;;;;;5091235;28;19993;-85
2022/08/03 01:07:45;;;;;;;;;;;22.90;99.90;;;;;;5091501;28;19957;-85
2022/08/03 01:10:29;;;;;;;;;;;22.90;99.90;;;;;;5091888;28;20001;-85
2022/08/03 01:12:58;;;;;;;;;;;22.90;99.90;;;;;;5091930;28;19977;-85
2022/08/03 01:15:23;;;;;;;;;;;22.90;99.90;;;;;;5091534;28;19908;-85
2022/08/03 01:17:58;;;;;;;;;;;22.90;99.90;;;;;;5091973;28;19914;-85
2022/08/03 01:20:26;;;;;;;;;;;22.90;99.90;;;;;;5092361;28;20288;-84
2022/08/03 01:23:07;;;;;;;;;;;22.80;99.90;;;;;;5090970;28;19915;-85
2022/08/03 01:25:39;;;;;;;;;;;22.80;99.90;;;;;;5092415;28;19908;-85
2022/08/03 01:28:04;;;;;;;;;;;22.80;99.90;;;;;;5092535;28;19909;-84
2022/08/03 01:30:30;;;;;;;;;;;22.70;99.90;;;;;;5095862;28;19915;-85
2022/08/03 01:32:59;;;;;;;;;;;22.70;99.90;;;;;;5095320;28;19908;-85
2022/08/03 01:35:49;;;;;;;;;;;22.70;99.90;;;;;;5095567;28;19908;-85
2022/08/03 01:38:19;;;;;;;;;;;22.70;99.90;;;;;;5095188;28;20406;-85
2022/08/03 01:40:45;;;;;;;;;;;22.80;99.90;;;;;;5095503;28;19922;-85
2022/08/03 01:43:13;;;;;;;;;;;22.70;99.90;;;;;;5096155;28;19908;-86
2022/08/03 01:45:39;;;;;;;;;;;22.70;99.90;;;;;;5095625;28;19908;-86
2022/08/03 01:48:06;;;;;;;;;;;22.60;99.90;;;;;;5096379;28;19965;-85
2022/08/03 01:50:33;;;;;;;;;;;22.60;99.90;;;;;;5097509;28;19908;-86
2022/08/03 01:52:58;;;;;;;;;;;22.60;99.90;;;;;;5095567;28;19908;-85
2022/08/03 01:55:27;;;;;;;;;;;22.50;99.90;;;;;;5095466;28;20093;-85
2022/08/03 01:57:54;;;;;;;;;;;22.50;99.90;;;;;;5095351;28;20283;-85
2022/08/03 02:00:19;;;;;;;;;;;22.40;99.90;;;;;;5095161;28;19951;-85
2022/08/03 02:02:46;;;;;;;;;;;22.40;99.90;;;;;;5095599;28;20400;-84
2022/08/03 02:05:12;;;;;;;;;;;22.40;99.90;;;;;;5096068;28;19939;-85
2022/08/03 02:07:39;;;;;;;;;;;22.30;99.90;;;;;;5096092;28;19944;-84
2022/08/03 02:10:05;;;;;;;;;;;22.30;99.90;;;;;;5095714;28;19908;-85
2022/08/03 02:12:31;;;;;;;;;;;22.20;99.90;;;;;;5094844;28;20387;-85
2022/08/03 02:14:58;;;;;;;;;;;22.20;99.90;;;;;;5094938;28;20363;-84
2022/08/03 02:17:25;;;;;;;;;;;22.20;99.90;;;;;;5094268;28;19908;-85
2022/08/03 02:19:51;;;;;;;;;;;22.20;99.90;;;;;;5094108;28;19915;-85
2022/08/03 02:22:16;;;;;;;;;;;22.20;99.90;;;;;;5095329;28;20371;-85
2022/08/03 02:24:42;;;;;;;;;;;22.20;99.90;;;;;;5094074;28;19908;-84
2022/08/03 02:27:18;;;;;;;;;;;22.10;99.90;;;;;;5094130;28;19909;-85
2022/08/03 02:29:45;;;;;;;;;;;22.20;99.90;;;;;;5095088;28;19908;-85
2022/08/03 02:32:12;;;;;;;;;;;22.10;99.90;;;;;;5095032;28;19915;-85
2022/08/03 02:34:39;;;;;;;;;;;22.10;99.90;;;;;;5096305;28;19908;-84
2022/08/03 02:37:05;;;;;;;;;;;22.10;99.90;;;;;;5094326;28;19960;-85
2022/08/03 02:39:32;;;;;;;;;;;22.10;99.90;;;;;;5105007;28;19916;-87
2022/08/03 02:42:01;;;;;;;;;;;22.00;99.90;;;;;;5104232;28;20442;-85
2022/08/03 02:44:27;;;;;;;;;;;22.00;99.90;;;;;;5098005;28;19908;-85
2022/08/03 02:46:58;;;;;;;;;;;22.00;99.90;;;;;;5097620;28;19908;-85
2022/08/03 02:49:23;;;;;;;;;;;21.90;99.90;;;;;;5095807;28;19934;-85
2022/08/03 02:51:51;;;;;;;;;;;21.90;99.90;;;;;;5096444;28;19965;-85
2022/08/03 02:54:17;;;;;;;;;;;21.90;99.90;;;;;;5094956;28;19914;-85
2022/08/03 02:56:44;;;;;;;;;;;21.90;99.90;;;;;;5094360;28;19908;-86
2022/08/03 02:59:10;;;;;;;;;;;21.80;99.90;;;;;;5096506;28;19915;-85
2022/08/03 03:01:36;;;;;;;;;;;21.80;99.90;;;;;;5094790;28;19912;-85
2022/08/03 03:04:02;;;;;;;;;;;21.80;99.90;;;;;;5095016;28;19915;-85
2022/08/03 03:06:29;;;;;;;;;;;21.70;99.90;;;;;;5095191;28;19908;-85
2022/08/03 03:08:55;;;;;;;;;;;21.70;99.90;;;;;;5095186;28;19908;-85
2022/08/03 03:11:21;;;;;;;;;;;21.60;99.90;;;;;;5094732;28;19914;-85
2022/08/03 03:13:48;;;;;;;;;;;21.60;99.90;;;;;;5094992;28;19909;-85
2022/08/03 03:16:14;;;;;;;;;;;21.50;99.90;;;;;;5094637;28;19909;-85
2022/08/03 03:18:40;;;;;;;;;;;21.50;99.90;;;;;;5096296;28;19919;-85
2022/08/03 03:21:07;;;;;;;;;;;21.40;99.90;;;;;;5094317;28;19916;-85
2022/08/03 03:23:35;;;;;;;;;;;21.40;99.90;;;;;;5095714;28;19922;-85
2022/08/03 03:26:01;;;;;;;;;;;21.40;99.90;;;;;;5095856;28;19943;-85
2022/08/03 03:28:27;;;;;;;;;;;21.40;99.90;;;;;;5094600;28;19954;-85
2022/08/03 03:30:52;;;;;;;;;;;21.40;99.90;;;;;;5094184;28;19937;-85
2022/08/03 03:33:18;;;;;;;;;;;21.30;99.90;;;;;;5094738;28;20003;-84
2022/08/03 03:35:45;;;;;;;;;;;21.30;99.90;;;;;;5095616;28;19908;-85
2022/08/03 03:38:11;;;;;;;;;;;21.30;99.90;;;;;;5094408;28;19908;-85
2022/08/03 03:40:37;;;;;;;;;;;21.30;99.90;;;;;;5095052;28;19916;-85
2022/08/03 03:43:06;;;;;;;;;;;21.30;99.90;;;;;;5095503;28;19908;-85
2022/08/03 03:45:33;;;;;;;;;;;21.30;99.90;;;;;;5094242;28;20386;-84
2022/08/03 03:47:59;;;;;;;;;;;21.30;99.90;;;;;;5093946;28;19915;-85
2022/08/03 03:50:25;;;;;;;;;;;21.30;99.90;;;;;;5094981;28;19916;-86
2022/08/03 03:52:50;;;;;;;;;;;21.30;99.90;;;;;;5093917;28;19952;-84
2022/08/03 03:55:16;;;;;;;;;;;21.30;99.90;;;;;;5094242;28;19908;-85
2022/08/03 03:57:42;;;;;;;;;;;21.30;99.90;;;;;;5093520;28;19912;-84
2022/08/03 04:00:08;;;;;;;;;;;21.30;99.90;;;;;;5094777;28;20270;-84
2022/08/03 04:02:33;;;;;;;;;;;21.20;99.90;;;;;;5094680;28;19915;-85
2022/08/03 04:13:19;;;;;;;;;;;21.30;99.90;;;;;;5094729;28;19915;-84
2022/08/03 04:15:45;;;;;;;;;;;21.30;99.90;;;;;;5093361;28;19912;-85
2022/08/03 04:18:12;;;;;;;;;;;21.40;99.90;;;;;;5092824;28;19908;-84
2022/08/03 04:20:39;;;;;;;;;;;21.40;99.90;;;;;;5092941;28;19912;-85
2022/08/03 04:23:06;;;;;;;;;;;21.40;99.90;;;;;;5093277;28;20294;-84
2022/08/03 04:25:32;;;;;;;;;;;21.40;99.90;;;;;;5093173;28;19969;-84
2022/08/03 04:28:00;;;;;;;;;;;21.50;99.90;;;;;;5093517;28;19908;-85
2022/08/03 04:30:27;;;;;;;;;;;21.50;99.90;;;;;;5093344;28;19915;-84
2022/08/03 04:32:55;;;;;;;;;;;21.50;99.90;;;;;;5094405;28;19908;-85
2022/08/03 04:35:21;;;;;;;;;;;21.60;99.90;;;;;;5092853;28;19908;-85
2022/08/03 04:37:48;;;;;;;;;;;21.60;99.90;;;;;;5093313;28;19908;-85
2022/08/03 04:40:15;;;;;;;;;;;21.60;99.90;;;;;;5092266;28;19912;-85
2022/08/03 04:42:41;;;;;;;;;;;21.60;99.90;;;;;;5099107;22;19932;-78
2022/08/03 04:45:10;;;;;;;;;;;21.60;99.90;;;;;;5072499;28;19931;-78
2022/08/03 04:47:36;;;;;;;;;;;21.60;99.90;;;;;;5043527;28;19949;-78
2022/08/03 04:50:03;;;;;;;;;;;21.60;99.90;;;;;;5035289;28;20195;-78
2022/08/03 04:52:29;;;;;;;;;;;21.70;99.90;;;;;;5056113;28;20004;-78
2022/08/03 04:54:55;;;;;;;;;;;21.70;99.90;;;;;;5056220;28;19956;-78
2022/08/03 04:57:21;;;;;;;;;;;21.70;99.90;;;;;;5055970;28;20295;-78
2022/08/03 04:59:51;;;;;;;;;;;21.80;99.90;;;;;;5056790;28;19909;-78
2022/08/03 05:02:17;;;;;;;;;;;21.90;99.90;;;;;;5055939;28;19908;-78
2022/08/03 05:04:45;;;;;;;;;;;21.90;99.90;;;;;;5061091;28;20366;-78
2022/08/03 05:07:11;;;;;;;;;;;21.90;99.90;;;;;;5059931;28;20426;-78
2022/08/03 05:09:37;;;;;;;;;;;22.00;99.90;;;;;;5060437;28;19916;-78
2022/08/03 05:12:03;;;;;;;;;;;22.00;99.90;;;;;;5059171;28;19909;-78
2022/08/03 05:14:29;;;;;;;;;;;22.10;99.90;;;;;;5060671;28;19956;-78
2022/08/03 05:16:54;;;;;;;;;;;22.00;99.90;;;;;;5060427;28;19916;-78
2022/08/03 05:19:20;;;;;;;;;;;22.10;99.90;;;;;;5059918;28;19909;-78
2022/08/03 05:21:45;;;;;;;;;;;22.20;99.90;;;;;;5060913;28;19916;-78
2022/08/03 05:24:11;;;;;;;;;;;22.20;99.90;;;;;;5059130;28;19909;-78
2022/08/03 05:26:37;;;;;;;;;;;22.30;99.90;;;;;;5060514;28;20008;-78
2022/08/03 05:29:03;;;;;;;;;;;22.30;99.90;;;;;;5060020;28;19909;-78
2022/08/03 05:31:29;;;;;;;;;;;22.40;99.90;;;;;;5060989;28;19932;-78
2022/08/03 05:33:55;;;;;;;;;;;22.50;99.90;;;;;;5058746;28;20387;-78
2022/08/03 05:36:21;;;;;;;;;;;22.60;99.90;;;;;;5069147;28;19908;-80
2022/08/03 05:38:47;;;;;;;;;;;22.70;99.90;;;;;;5069629;28;19920;-80
2022/08/03 05:41:12;;;;;;;;;;;22.80;99.90;;;;;;5068907;28;19913;-80
2022/08/03 05:43:41;;;;;;;;;;;22.80;99.90;;;;;;5068184;28;19912;-80
2022/08/03 05:46:07;;;;;;;;;;;22.90;99.90;;;;;;5067871;28;19917;-80
2022/08/03 05:48:32;;;;;;;;;;;23.00;99.90;;;;;;5068352;28;19909;-80
2022/08/03 05:50:58;;;;;;;;;;;23.00;99.90;;;;;;5067322;28;19919;-80
2022/08/03 05:53:23;;;;;;;;;;;23.00;99.90;;;;;;5066987;28;19931;-81
2022/08/03 05:55:49;;;;;;;;;;;23.10;99.90;;;;;;5066204;28;19916;-80
2022/08/03 05:58:14;;;;;;;;;;;23.20;99.90;;;;;;5066276;28;19908;-80
2022/08/03 06:00:40;;;;;;;;;;;23.20;99.90;;;;;;5065880;28;19913;-80
2022/08/03 06:03:06;;;;;;;;;;;23.30;99.90;;;;;;5065221;28;20389;-80
2022/08/03 06:05:35;;;;;;;;;;;23.30;99.90;;;;;;5065042;28;19999;-80
2022/08/03 06:08:01;;;;;;;;;;;23.40;99.90;;;;;;5064680;28;19909;-80
2022/08/03 06:10:27;;;;;;;;;;;23.50;99.90;;;;;;5064621;28;20382;-81
2022/08/03 06:12:52;;;;;;;;;;;23.50;99.90;;;;;;5064259;28;19968;-81
2022/08/03 06:15:18;;;;;;;;;;;23.70;99.90;;;;;;5064886;28;19948;-81
2022/08/03 06:17:47;;;;;;;;;;;23.70;99.90;;;;;;5063326;28;19909;-81
2022/08/03 06:20:14;;;;;;;;;;;23.90;99.90;;;;;;5064523;28;19936;-81
2022/08/03 06:22:40;;;;;;;;;;;24.00;99.90;;;;;;5063000;28;19960;-81
2022/08/03 06:25:06;;;;;;;;;;;24.00;99.90;;;;;;5063389;28;19908;-79
2022/08/03 06:27:31;;;;;;;;;;;24.20;99.90;;;;;;5059302;28;20382;-78
2022/08/03 06:29:57;;;;;;;;;;;24.20;99.90;;;;;;5059612;28;19935;-79
2022/08/03 06:32:23;;;;;;;;;;;24.30;99.90;;;;;;5060251;28;19909;-78
2022/08/03 06:34:48;;;;;;;;;;;24.30;99.90;;;;;;5059220;28;19924;-78
2022/08/03 06:37:14;;;;;;;;;;;24.40;99.90;;;;;;5058814;28;19916;-79
2022/08/03 06:39:39;;;;;;;;;;;24.50;99.90;;;;;;5059895;28;19909;-78
2022/08/03 06:42:05;;;;;;;;;;;24.70;99.90;;;;;;5059130;28;20368;-79
2022/08/03 06:44:31;;;;;;;;;;;24.80;99.90;;;;;;5059770;28;20080;-79
2022/08/03 06:46:57;;;;;;;;;;;24.90;99.90;;;;;;5058532;28;19909;-79
2022/08/03 06:49:23;;;;;;;;;;;25.00;99.90;;;;;;5065090;28;19955;-79
2022/08/03 06:51:51;;;;;;;;;;;25.10;99.90;;;;;;5052277;28;19917;-80
2022/08/03 06:54:17;;;;;;;;;;;25.20;99.90;;;;;;5034445;28;19916;-80
2022/08/03 06:56:42;;;;;;;;;;;25.30;99.90;;;;;;5042695;28;19909;-79
2022/08/03 06:59:08;;;;;;;;;;;25.30;99.90;;;;;;5048139;28;19935;-80
2022/08/03 07:01:33;;;;;;;;;;;25.40;99.90;;;;;;5061839;28;20376;-80
2022/08/03 07:04:00;;;;;;;;;;;25.50;99.90;;;;;;5044115;28;19909;-80
2022/08/03 07:06:25;;;;;;;;;;;25.60;99.90;;;;;;5038411;28;19916;-80
2022/08/03 07:08:51;;;;;;;;;;;25.70;99.90;;;;;;5039415;28;19940;-80
2022/08/03 07:11:16;;;;;;;;;;;25.80;99.90;;;;;;5040152;28;19909;-80
2022/08/03 07:13:42;;;;;;;;;;;25.90;99.90;;;;;;5038645;28;19916;-80
2022/08/03 07:16:08;;;;;;;;;;;26.10;99.90;;;;;;5040032;28;19920;-80
2022/08/03 07:18:36;;;;;;;;;;;26.20;99.90;;;;;;5039392;28;19909;-80
2022/08/03 07:21:02;;;;;;;;;;;26.30;99.90;;;;;;5038503;28;20118;-79
2022/08/03 07:23:28;;;;;;;;;;;26.40;99.90;;;;;;5035376;28;20007;-80
2022/08/03 07:25:53;;;;;;;;;;;26.50;99.90;;;;;;5037011;28;20424;-79
2022/08/03 07:28:19;;;;;;;;;;;26.60;99.90;;;;;;5040444;28;19940;-80
2022/08/03 07:30:44;;;;;;;;;;;26.60;99.90;;;;;;5040302;28;19909;-80
2022/08/03 07:33:10;;;;;;;;;;;26.70;99.90;;;;;;5041654;28;19943;-81
2022/08/03 07:35:36;;;;;;;;;;;26.80;99.90;;;;;;5039095;28;19913;-80
2022/08/03 07:38:02;;;;;;;;;;;26.90;99.90;;;;;;5039454;28;19900;-80
2022/08/03 07:40:27;;;;;;;;;;;27.00;99.90;;;;;;5039237;28;19929;-81
2022/08/03 07:42:53;;;;;;;;;;;27.20;99.90;;;;;;5039788;28;19917;-81
2022/08/03 07:45:22;;;;;;;;;;;27.30;99.90;;;;;;5039278;28;20423;-79
2022/08/03 07:47:47;;;;;;;;;;;27.50;99.90;;;;;;5039229;28;19913;-81
2022/08/03 07:50:13;;;;;;;;;;;27.60;99.90;;;;;;5057342;28;20283;-80
2022/08/03 07:52:52;;;;;;;;;;;27.50;99.90;;;;;;5045437;28;19913;-80
2022/08/03 07:55:22;;;;;;;;;;;27.60;99.90;;;;;;5045979;28;19980;-80
2022/08/03 07:57:58;;;;;;;;;;;27.60;99.90;;;;;;5047334;28;20011;-80
2022/08/03 08:00:23;;;;;;;;;;;27.80;99.90;;;;;;5050445;28;19998;-80
2022/08/03 08:02:49;;;;;;;;;;;28.30;99.90;;;;;;5049013;28;19919;-80
2022/08/03 08:05:15;;;;;;;;;;;29.20;99.90;;;;;;5045337;28;19908;-81
2022/08/03 08:07:40;;;;;;;;;;;30.10;99.90;;;;;;5042767;28;20011;-80
2022/08/03 08:10:08;;;;;;;;;;;30.90;99.90;;;;;;5044444;28;19908;-81
2022/08/03 08:12:34;;;;;;;;;;;31.90;99.90;;;;;;5061540;28;20372;-81
2022/08/03 08:15:00;;;;;;;;;;;32.70;99.90;;;;;;5062298;28;19919;-81
2022/08/03 08:17:26;;;;;;;;;;;33.20;99.90;;;;;;5048733;28;19917;-81
2022/08/03 08:19:51;;;;;;;;;;;34.10;98.70;;;;;;5066254;28;19935;-80
2022/08/03 08:22:20;;;;;;;;;;;35.00;95.90;;;;;;5049287;28;19920;-83
2022/08/03 08:24:47;;;;;;;;;;;36.00;90.20;;;;;;5049715;28;19942;-81
2022/08/03 08:27:13;;;;;;;;;;;36.80;86.60;;;;;;5048427;28;20386;-81
2022/08/03 08:29:39;;;;;;;;;;;37.60;80.80;;;;;;5065755;28;20007;-80
2022/08/03 08:32:05;;;;;;;;;;;38.30;77.90;;;;;;5047049;28;19909;-80
2022/08/03 08:34:30;;;;;;;;;;;39.00;70.40;;;;;;5045787;28;19916;-81
2022/08/03 08:36:57;;;;;;;;;;;39.70;67.00;;;;;;5045370;28;19976;-79
2022/08/03 08:39:23;;;;;;;;;;;40.10;62.60;;;;;;5047708;28;19913;-79
2022/08/03 08:41:51;;;;;;;;;;;40.60;58.80;;;;;;5050595;28;19924;-79
2022/08/03 08:44:17;;;;;;;;;;;41.10;56.10;;;;;;5049725;28;19967;-79
2022/08/03 08:46:43;;;;;;;;;;;41.30;53.70;;;;;;5047670;28;19909;-79
2022/08/03 08:49:09;;;;;;;;;;;41.30;51.50;;;;;;5063947;28;19909;-79
2022/08/03 08:51:36;;;;;;;;;;;41.10;50.30;;;;;;5064152;28;20012;-79
2022/08/03 08:54:06;;;;;;;;;;;41.00;50.40;;;;;;5065716;28;19931;-79
2022/08/03 08:56:32;;;;;;;;;;;41.50;51.00;;;;;;5066363;28;19913;-79
2022/08/03 08:58:58;;;;;;;;;;;42.20;47.90;;;;;;5065699;28;19917;-79
2022/08/03 09:01:24;;;;;;;;;;;42.50;47.50;;;;;;5067879;28;19912;-79
2022/08/03 09:03:52;;;;;;;;;;;43.10;46.20;;;;;;5066494;28;19909;-79
2022/08/03 09:06:17;;;;;;;;;;;42.30;45.50;;;;;;5050156;28;19913;-79
2022/08/03 09:08:43;;;;;;;;;;;42.40;45.80;;;;;;5049207;28;19915;-78
2022/08/03 09:11:09;;;;;;;;;;;42.80;45.40;;;;;;5050195;28;20179;-79
2022/08/03 09:13:34;;;;;;;;;;;43.60;45.40;;;;;;5050897;28;19916;-80
2022/08/03 09:16:12;;;;;;;;;;;43.90;41.90;;;;;;5066759;28;19916;-81
2022/08/03 09:18:38;;;;;;;;;;;43.90;43.10;;;;;;5067608;28;20273;-80
2022/08/03 09:21:14;;;;;;;;;;;44.50;42.50;;;;;;5067848;28;19920;-80
2022/08/03 09:23:44;;;;;;;;;;;45.10;41.80;;;;;;5068845;28;19936;-80
2022/08/03 09:26:10;;;;;;;;;;;45.10;38.40;;;;;;5068336;28;19912;-80
2022/08/03 09:28:35;;;;;;;;;;;44.70;39.10;;;;;;5055140;28;19909;-80
2022/08/03 09:31:01;;;;;;;;;;;44.80;37.80;;;;;;5056821;28;20179;-80
2022/08/03 09:33:27;;;;;;;;;;;44.30;38.30;;;;;;5052010;28;19910;-80
2022/08/03 09:35:55;;;;;;;;;;;44.70;38.70;;;;;;5066341;28;19958;-80
2022/08/03 09:38:26;;;;;;;;;;;45.00;38.20;;;;;;5083331;28;19920;-80
2022/08/03 09:40:52;;;;;;;;;;;45.20;37.20;;;;;;5074563;28;19916;-80
2022/08/03 09:43:18;;;;;;;;;;;44.70;36.90;;;;;;5054161;28;20007;-80
2022/08/03 09:45:44;;;;;;;;;;;44.20;37.50;;;;;;5042335;28;19936;-80
2022/08/03 09:48:30;;;;;;;;;;;44.80;38.80;;;;;;5047836;28;19909;-80
2022/08/03 09:50:57;;;;;;;;;;;45.20;37.10;;;;;;5023812;28;19916;-80
2022/08/03 09:53:23;;;;;;;;;;;45.10;36.20;;;;;;5043193;28;19963;-79
2022/08/03 09:55:53;;;;;;;;;;;44.10;36.20;;;;;;5045133;28;19974;-80
2022/08/03 09:58:22;;;;;;;;;;;44.50;36.70;;;;;;5027972;28;19916;-84
2022/08/03 10:00:51;;;;;;;;;;;44.30;36.00;;;;;;5034705;28;19975;-82
2022/08/03 10:03:17;;;;;;;;;;;44.00;37.10;;;;;;5033895;28;20292;-84
2022/08/03 10:05:43;;;;;;;;;;;43.90;36.60;;;;;;5035667;28;19909;-81
2022/08/03 10:08:19;;;;;;;;;;;43.00;37.10;;;;;;5034016;28;19910;-81
2022/08/03 10:10:45;;;;;;;;;;;42.70;37.90;;;;;;5033217;28;19909;-81
2022/08/03 10:13:15;;;;;;;;;;;43.60;38.60;;;;;;5017534;28;19916;-84
2022/08/03 10:15:41;;;;;;;;;;;44.20;37.90;;;;;;5068918;28;19917;-84
2022/08/03 10:18:07;;;;;;;;;;;44.70;36.90;;;;;;5062843;28;19913;-82
2022/08/03 10:20:37;;;;;;;;;;;45.50;37.40;;;;;;5053436;28;19912;-82
2022/08/03 10:23:03;;;;;;;;;;;45.80;36.30;;;;;;5056672;28;19908;-82
2022/08/03 10:25:30;;;;;;;;;;;45.70;34.10;;;;;;5057176;28;20377;-83
2022/08/03 10:27:57;;;;;;;;;;;45.70;33.30;;;;;;5037588;28;20368;-85
2022/08/03 10:30:24;;;;;;;;;;;45.50;34.60;;;;;;5039442;28;19917;-82
2022/08/03 10:33:08;;;;;;;;;;;44.70;34.30;;;;;;5040851;28;20000;-85
2022/08/03 10:35:36;;;;;;;;;;;43.40;35.50;;;;;;5036588;28;19910;-85
2022/08/03 10:38:09;;;;;;;;;;;43.30;35.90;;;;;;5043202;28;20227;-82
2022/08/03 10:40:36;;;;;;;;;;;42.80;36.70;;;;;;5038470;28;19917;-82
2022/08/03 10:52:06;;;;;;;;;;;40.60;36.40;;;;;;5110712;28;19918;-90
2022/08/03 10:57:59;;;;;;;;;;;41.90;37.60;;;;;;5039930;28;20463;-90
2022/08/03 11:00:25;;;;;;;;;;;41.50;37.20;;;;;;5069400;28;19912;-91
2022/08/03 11:03:12;;;;;;;;;;;40.80;38.60;;;;;;5069045;28;19944;-90
2022/08/03 11:05:48;;;;;;;;;;;39.80;38.80;;;;;;5060255;28;20262;-91
2022/08/03 11:08:27;;;;;;;;;;;39.30;39.70;;;;;;5060824;28;19908;-91
2022/08/03 11:10:54;;;;;;;;;;;38.50;39.10;;;;;;5059986;28;19912;-91
2022/08/03 11:13:21;;;;;;;;;;;37.60;40.20;;;;;;5060129;28;19943;-91
2022/08/03 11:15:48;;;;;;;;;;;37.20;42.10;;;;;;5059648;28;19972;-90
2022/08/03 11:18:14;;;;;;;;;;;36.90;42.90;;;;;;5060430;28;19955;-90
2022/08/03 11:20:58;;;;;;;;;;;36.50;42.00;;;;;;5059955;28;19912;-90
2022/08/03 11:23:56;;;;;;;;;;;35.90;43.70;;;;;;5060811;28;19999;-90
2022/08/03 11:26:21;;;;;;;;;;;35.40;43.50;;;;;;5015466;28;19912;-91
2022/08/03 11:28:47;;;;;;;;;;;35.20;45.40;;;;;;5060092;28;20042;-91
2022/08/03 11:31:22;;;;;;;;;;;34.80;44.90;;;;;;5075754;28;19915;-91
2022/08/03 11:34:06;;;;;;;;;;;34.70;45.00;;;;;;5059030;28;19913;-91
2022/08/03 11:36:52;;;;;;;;;;;34.50;46.90;;;;;;5061302;28;19908;-91
2022/08/03 11:39:17;;;;;;;;;;;34.60;48.00;;;;;;5059290;28;20385;-90
2022/08/03 11:44:53;;;;;;;;;;;34.70;45.40;;;;;;4995512;28;20070;-91
2022/08/03 11:47:22;;;;;;;;;;;34.60;45.70;;;;;;4979354;28;19925;-91
2022/08/03 11:49:49;;;;;;;;;;;34.60;45.10;;;;;;5036923;28;19912;-92
2022/08/03 11:52:15;;;;;;;;;;;34.50;45.30;;;;;;5059739;28;19919;-91
2022/08/03 11:54:41;;;;;;;;;;;34.40;45.70;;;;;;5059689;28;19912;-91
2022/08/03 11:57:07;;;;;;;;;;;34.50;46.50;;;;;;5060005;28;19909;-91
2022/08/03 11:59:33;;;;;;;;;;;34.50;45.80;;;;;;5061666;28;19943;-91
2022/08/03 12:02:25;;;;;;;;;;;34.70;45.40;;;;;;5061714;28;19934;-91
2022/08/03 12:04:50;;;;;;;;;;;34.50;45.20;;;;;;5056613;28;19912;-90
2022/08/03 12:07:17;;;;;;;;;;;34.30;45.50;;;;;;5060481;28;19961;-91
2022/08/03 12:09:43;;;;;;;;;;;34.00;46.40;;;;;;5059477;28;19936;-91
2022/08/03 12:12:14;;;;;;;;;;;33.90;46.60;;;;;;5061281;28;19909;-90
2022/08/03 12:14:45;;;;;;;;;;;33.80;46.70;;;;;;5062033;28;19919;-90
2022/08/03 12:17:31;;;;;;;;;;;33.80;47.80;;;;;;5060555;28;19992;-90
2022/08/03 12:26:41;;;;;;;;;;;33.80;47.80;;;;;;5078745;28;19916;-91
2022/08/03 12:29:50;;;;;;;;;;;33.90;47.30;;;;;;5018633;28;19910;-90
2022/08/03 12:32:15;;;;;;;;;;;33.90;47.50;;;;;;5062145;28;19909;-90
2022/08/03 12:34:45;;;;;;;;;;;34.00;47.40;;;;;;5060541;28;19916;-91
2022/08/03 12:37:11;;;;;;;;;;;34.30;47.80;;;;;;5059584;28;19912;-91
2022/08/03 12:39:37;;;;;;;;;;;34.60;48.00;;;;;;5075137;28;19913;-90
2022/08/03 12:42:03;;;;;;;;;;;34.90;48.70;;;;;;5087890;28;19912;-91
2022/08/03 12:44:33;;;;;;;;;;;35.10;47.80;;;;;;5099273;28;19908;-91
2022/08/03 12:46:59;;;;;;;;;;;35.10;46.10;;;;;;5093976;28;19923;-91
2022/08/03 12:49:25;;;;;;;;;;;34.90;46.30;;;;;;5080929;28;19915;-90
2022/08/03 12:51:51;;;;;;;;;;;35.00;47.40;;;;;;5081933;28;19908;-91
2022/08/03 12:54:20;;;;;;;;;;;35.00;46.00;;;;;;5081777;28;19916;-90
2022/08/03 12:56:56;;;;;;;;;;;35.10;47.50;;;;;;5079037;28;19908;-91
2022/08/03 13:00:09;;;;;;;;;;;35.10;46.50;;;;;;5071538;28;19939;-91
2022/08/03 13:03:12;;;;;;;;;;;34.90;46.80;;;;;;5022122;28;19914;-90
2022/08/03 13:05:42;;;;;;;;;;;35.10;45.40;;;;;;5018431;28;19917;-91
2022/08/03 13:08:16;;;;;;;;;;;35.00;46.00;;;;;;5080642;28;19937;-90
2022/08/03 13:10:42;;;;;;;;;;;35.00;47.30;;;;;;5090642;28;20013;-90
2022/08/03 13:13:08;;;;;;;;;;;35.10;47.00;;;;;;5090244;28;19926;-91
2022/08/03 13:15:33;;;;;;;;;;;35.20;45.80;;;;;;5084539;28;20407;-91
2022/08/03 13:17:59;;;;;;;;;;;35.30;45.80;;;;;;5071589;28;19916;-92
2022/08/03 13:20:24;;;;;;;;;;;35.20;46.20;;;;;;5080340;28;19916;-91
2022/08/03 13:26:05;;;;;;;;;;;34.80;46.90;;;;;;5101534;28;20004;-91
2022/08/03 13:28:31;;;;;;;;;;;34.90;45.60;;;;;;5084060;28;19931;-91
2022/08/03 13:30:56;;;;;;;;;;;35.00;45.10;;;;;;5082566;28;19908;-91
2022/08/03 13:33:22;;;;;;;;;;;35.00;47.20;;;;;;5081692;28;19908;-91
2022/08/03 13:35:48;;;;;;;;;;;35.20;45.80;;;;;;5081617;28;19924;-91
2022/08/03 13:59:43;;;;;;;;;;;35.70;45.10;;;;;;5081128;28;19924;-91
2022/08/03 14:02:09;;;;;;;;;;;35.80;46.70;;;;;;5046085;28;19920;-91
2022/08/03 14:23:47;;;;;;;;;;;35.80;44.10;;;;;;5017560;28;19936;-91
2022/08/03 14:29:45;;;;;;;;;;;35.90;45.10;;;;;;4961040;29;19955;-91
2022/08/03 14:32:11;;;;;;;;;;;36.00;44.10;;;;;;4988521;28;19925;-91
2022/08/03 14:34:36;;;;;;;;;;;36.00;43.60;;;;;;5035230;28;19908;-92
2022/08/03 14:37:02;;;;;;;;;;;36.20;43.30;;;;;;5062882;28;19995;-91
2022/08/03 14:39:27;;;;;;;;;;;36.90;43.40;;;;;;5066289;28;19909;-91
2022/08/03 14:41:53;;;;;;;;;;;38.90;44.40;;;;;;5063514;28;19912;-90
2022/08/03 14:44:19;;;;;;;;;;;41.00;40.40;;;;;;5062865;28;20353;-91
2022/08/03 15:05:17;;;;;;;;;;;47.30;31.80;;;;;;5079870;28;19996;-91
2022/08/03 15:07:43;;;;;;;;;;;48.30;31.20;;;;;;5062954;28;20323;-92
2022/08/03 15:10:08;;;;;;;;;;;48.60;30.00;;;;;;5066850;28;19909;-91
2022/08/03 15:12:34;;;;;;;;;;;49.00;31.50;;;;;;5078505;28;20285;-92
2022/08/03 15:14:59;;;;;;;;;;;49.00;30.50;;;;;;5084770;28;19920;-92
2022/08/03 15:17:25;;;;;;;;;;;49.70;30.70;;;;;;5070736;28;19975;-92
2022/08/03 15:19:50;;;;;;;;;;;49.50;28.50;;;;;;5075580;28;19934;-92
2022/08/03 15:22:18;;;;;;;;;;;49.90;30.10;;;;;;5062280;28;19908;-93
2022/08/03 15:24:43;;;;;;;;;;;50.20;28.70;;;;;;5059027;28;19970;-92
2022/08/03 15:27:09;;;;;;;;;;;50.60;28.00;;;;;;5059484;28;20374;-92
2022/08/03 15:29:34;;;;;;;;;;;51.30;29.60;;;;;;5060489;28;19934;-92
2022/08/03 15:32:00;;;;;;;;;;;51.80;28.30;;;;;;5071000;28;19916;-92
2022/08/03 15:34:27;;;;;;;;;;;51.60;27.30;;;;;;5047954;28;22119;-92
2022/08/03 15:36:53;;;;;;;;;;;51.40;27.60;;;;;;5078956;28;19962;-92
2022/08/03 16:04:07;;;;;;;;;;;49.40;26.30;;;;;;4998608;28;19993;-91
2022/08/03 16:06:32;;;;;;;;;;;49.00;27.00;;;;;;5053577;28;19908;-92
2022/08/03 16:08:58;;;;;;;;;;;48.90;27.00;;;;;;5060671;28;19974;-92
2022/08/03 16:11:24;;;;;;;;;;;48.60;26.80;;;;;;5060520;28;19970;-91
2022/08/03 16:13:49;;;;;;;;;;;48.30;26.70;;;;;;5061197;28;19908;-92
2022/08/03 16:16:15;;;;;;;;;;;48.40;28.20;;;;;;5060723;28;20362;-92
2022/08/03 16:18:41;;;;;;;;;;;48.70;27.20;;;;;;5060729;28;19915;-92
2022/08/03 16:21:07;;;;;;;;;;;48.50;26.60;;;;;;5060329;28;19958;-92